createdAt,value
2022-08-24T00:00:58.033Z,100301.16
2022-08-24T00:04:59.907Z,100303.00
2022-08-24T00:09:01.827Z,100304.00
2022-08-24T00:13:03.745Z,100299.91
2022-08-24T00:17:05.831Z,100304.22
2022-08-24T00:21:08.243Z,100299.50
2022-08-24T00:25:11.602Z,100298.28
2022-08-24T00:29:14.841Z,100314.84
2022-08-24T00:33:16.765Z,100299.69
2022-08-24T00:37:18.581Z,100297.47
2022-08-24T00:41:20.410Z,100299.50
2022-08-24T00:45:22.540Z,100297.47
2022-08-24T00:49:35.810Z,100295.63
2022-08-24T00:53:44.102Z,100302.34
2022-08-24T00:57:49.309Z,100293.78
2022-08-24T01:01:51.960Z,100298.69
2022-08-24T01:05:54.029Z,100301.16
2022-08-24T01:09:59.185Z,100299.91
2022-08-24T01:14:02.155Z,100307.47
2022-08-24T01:18:23.413Z,100319.56
2022-08-24T01:22:45.688Z,100321.88
2022-08-24T01:26:49.722Z,100320.16
2022-08-24T01:30:51.482Z,100313.81
2022-08-24T01:34:54.056Z,100313.47
2022-08-24T01:38:57.875Z,100317.97
2022-08-24T01:42:59.700Z,100326.81
2022-08-24T01:47:01.942Z,100313.72
2022-08-24T01:51:08.639Z,100310.88
2022-08-24T01:55:12.409Z,100303.06
2022-08-24T01:59:16.600Z,100312.50
2022-08-24T02:03:27.656Z,100317.38
2022-08-24T02:07:39.534Z,100313.91
2022-08-24T02:11:41.335Z,100314.47
2022-08-24T02:15:49.524Z,100312.03
2022-08-24T02:19:57.476Z,100314.28
2022-08-24T02:23:59.365Z,100312.25
2022-08-24T02:28:01.842Z,100310.38
2022-08-24T02:32:04.242Z,100310.78
2022-08-24T02:36:25.454Z,100315.66
2022-08-24T02:40:27.764Z,100311.72
2022-08-24T02:44:29.609Z,100316.34
2022-08-24T02:48:31.546Z,100327.97
2022-08-24T02:52:33.285Z,100332.13
2022-08-24T02:56:35.080Z,100328.25
2022-08-24T03:00:38.592Z,100337.84
2022-08-24T03:04:40.548Z,100347.19
2022-08-24T03:08:46.464Z,100347.41
2022-08-24T03:12:59.516Z,100355.72
2022-08-24T03:17:01.418Z,100365.47
2022-08-24T03:21:03.625Z,100371.16
2022-08-24T03:25:05.728Z,100363.25
2022-08-24T03:29:07.885Z,100375.09
2022-08-24T03:33:09.999Z,100378.63
2022-08-24T03:37:13.960Z,100381.66
2022-08-24T03:41:15.714Z,100383.09
2022-08-24T03:45:17.649Z,100381.31
2022-08-24T03:49:20.025Z,100383.22
2022-08-24T03:53:22.097Z,100387.41
2022-08-24T03:57:26.493Z,100389.91
2022-08-24T04:01:29.790Z,100391.53
2022-08-24T04:05:34.941Z,100388.22
2022-08-24T04:09:36.967Z,100404.03
2022-08-24T04:13:38.827Z,100408.84
2022-08-24T04:17:40.619Z,100411.88
2022-08-24T04:21:45.472Z,100394.56
2022-08-24T04:25:48.145Z,100402.69
2022-08-24T04:29:50.007Z,100397.78
2022-08-24T04:33:54.886Z,100388.88
2022-08-24T04:37:59.353Z,100377.97
2022-08-24T04:42:03.191Z,100378.13
2022-08-24T04:46:06.857Z,100375.31
2022-08-24T04:50:08.905Z,100367.00
2022-08-24T04:54:11.219Z,100372.56
2022-08-24T04:58:17.133Z,100375.66
2022-08-24T05:02:20.971Z,100374.81
2022-08-24T05:06:25.534Z,100381.56
2022-08-24T05:10:33.479Z,100367.38
2022-08-24T05:14:35.750Z,100371.09
2022-08-24T05:18:37.984Z,100365.47
2022-08-24T05:22:39.881Z,100356.41
2022-08-24T05:26:42.327Z,100351.41
2022-08-24T05:30:44.109Z,100345.97
2022-08-24T05:34:45.905Z,100333.63
2022-08-24T05:38:48.171Z,100332.56
2022-08-24T05:42:50.414Z,100332.00
2022-08-24T05:46:53.370Z,100325.00
2022-08-24T05:50:56.488Z,100344.66
2022-08-24T05:54:59.971Z,100355.19
2022-08-24T05:59:02.227Z,100361.25
2022-08-24T06:03:04.290Z,100374.03
2022-08-24T06:07:09.213Z,100375.88
2022-08-24T06:11:11.047Z,100384.34
2022-08-24T06:15:13.342Z,100374.69
2022-08-24T06:19:17.731Z,100363.25
2022-08-24T06:23:19.480Z,100370.50
2022-08-24T06:27:21.738Z,100361.00
2022-08-24T06:31:27.067Z,100345.53
2022-08-24T06:35:29.747Z,100346.81
2022-08-24T06:39:31.896Z,100351.91
2022-08-24T06:43:34.357Z,100350.81
2022-08-24T06:47:38.919Z,100350.47
2022-08-24T06:51:40.904Z,100359.69
2022-08-24T06:55:57.613Z,100355.66
2022-08-24T06:59:59.475Z,100352.09
2022-08-24T07:04:01.329Z,100348.56
2022-08-24T07:08:04.082Z,100353.03
2022-08-24T07:12:07.461Z,100361.97
2022-08-24T07:16:10.733Z,100369.00
2022-08-24T07:20:13.070Z,100386.97
2022-08-24T07:24:17.415Z,100381.59
2022-08-24T07:28:27.710Z,100389.00
2022-08-24T07:32:34.086Z,100382.56
2022-08-24T07:36:38.932Z,100392.50
2022-08-24T07:41:09.401Z,100384.47
2022-08-24T07:45:10.145Z,100400.22
2022-08-24T07:49:29.332Z,100388.34
2022-08-24T07:53:52.573Z,100386.41
2022-08-24T07:57:55.195Z,100397.19
2022-08-24T08:01:58.827Z,100397.47
2022-08-24T08:06:03.972Z,100397.25
2022-08-24T08:10:06.653Z,100386.06
2022-08-24T08:14:11.369Z,100398.81
2022-08-24T08:18:13.462Z,100392.22
2022-08-24T08:22:33.762Z,100387.31
2022-08-24T08:26:35.656Z,100398.75
2022-08-24T08:30:37.714Z,100396.63
2022-08-24T08:34:39.496Z,100401.44
2022-08-24T08:38:43.094Z,100404.22
2022-08-24T08:42:59.751Z,100395.94
2022-08-24T08:47:14.129Z,100403.13
2022-08-24T08:51:59.426Z,100405.63
2022-08-24T08:56:14.066Z,100404.03
2022-08-24T09:00:32.080Z,100389.50
2022-08-24T09:05:21.383Z,100392.66
2022-08-24T09:09:33.065Z,100397.53
2022-08-24T09:13:44.544Z,100389.69
2022-08-24T09:18:21.047Z,100381.03
2022-08-24T09:22:25.830Z,100379.75
2022-08-24T09:26:59.578Z,100384.41
2022-08-24T09:31:43.820Z,100388.13
2022-08-24T09:36:11.024Z,100389.72
2022-08-24T09:40:50.202Z,100386.91
2022-08-24T09:45:42.723Z,100382.75
2022-08-24T09:50:24.874Z,100383.00
2022-08-24T09:55:15.469Z,100370.78
2022-08-24T09:59:44.822Z,100374.78
2022-08-24T10:03:58.372Z,100365.00
2022-08-24T10:08:48.363Z,100351.19
2022-08-24T10:13:23.806Z,100356.44
2022-08-24T10:18:20.242Z,100354.13
2022-08-24T10:23:23.096Z,100363.69
2022-08-24T10:28:39.577Z,100359.28
2022-08-24T10:33:24.102Z,100355.69
2022-08-24T10:37:43.913Z,100351.84
2022-08-24T10:41:57.781Z,100336.91
2022-08-24T10:46:36.309Z,100349.63
2022-08-24T10:51:03.105Z,100332.69
2022-08-24T10:55:24.862Z,100351.25
2022-08-24T10:59:35.380Z,100343.00
2022-08-24T11:04:02.146Z,100346.03
2022-08-24T11:08:06.237Z,100348.94
2022-08-24T11:12:23.779Z,100348.84
2022-08-24T11:16:32.579Z,100355.03
2022-08-24T11:20:40.621Z,100354.59
2022-08-24T11:24:48.466Z,100366.44
2022-08-24T11:28:58.691Z,100354.59
2022-08-24T11:33:06.371Z,100348.97
2022-08-24T11:37:14.282Z,100357.50
2022-08-24T11:41:32.538Z,100358.00
2022-08-24T11:45:45.295Z,100353.16
2022-08-24T11:50:15.816Z,100347.94
2022-08-24T11:54:38.882Z,100354.59
2022-08-24T11:58:54.258Z,100357.13
2022-08-24T12:03:17.833Z,100358.59
2022-08-24T12:07:26.323Z,100358.19
2022-08-24T12:11:46.994Z,100357.97
2022-08-24T12:16:05.863Z,100357.06
2022-08-24T12:20:34.169Z,100337.84
2022-08-24T12:24:48.824Z,100338.66
2022-08-24T12:28:55.316Z,100338.31
2022-08-24T12:33:03.663Z,100328.88
2022-08-24T12:37:16.354Z,100334.09
2022-08-24T12:41:27.890Z,100347.63
2022-08-24T12:45:30.151Z,100336.16
2022-08-24T12:49:43.901Z,100328.19
2022-08-24T12:54:08.194Z,100325.75
2022-08-24T12:58:48.213Z,100329.81
2022-08-24T13:03:09.414Z,100324.13
2022-08-24T13:07:21.104Z,100327.88
2022-08-24T13:11:33.375Z,100311.88
2022-08-24T13:15:35.179Z,100327.47
2022-08-24T13:19:40.965Z,100320.06
2022-08-24T13:23:42.756Z,100320.97
2022-08-24T13:27:47.020Z,100314.91
2022-08-24T13:31:51.163Z,100312.72
2022-08-24T13:35:58.749Z,100326.69
2022-08-24T13:40:10.332Z,100316.59
2022-08-24T13:44:38.921Z,100311.25
2022-08-24T13:48:58.637Z,100308.22
2022-08-24T13:53:40.577Z,100316.84
2022-08-24T13:57:52.763Z,100315.41
2022-08-24T14:02:25.802Z,100308.28
2022-08-24T14:06:48.801Z,100306.81
2022-08-24T14:11:06.836Z,100309.00
2022-08-24T14:15:42.055Z,100299.13
2022-08-24T14:20:09.033Z,100305.44
2022-08-24T14:24:32.380Z,100311.78
2022-08-24T14:28:42.303Z,100310.22
2022-08-24T14:33:12.132Z,100305.56
2022-08-24T14:37:13.818Z,100302.28
2022-08-24T14:41:46.310Z,100311.63
2022-08-24T14:46:00.284Z,100294.81
2022-08-24T14:50:12.620Z,100298.34
2022-08-24T14:54:56.755Z,100298.03
2022-08-24T14:59:40.417Z,100287.38
2022-08-24T15:04:01.352Z,100296.78
2022-08-24T15:08:11.586Z,100305.47
2022-08-24T15:12:36.370Z,100292.47
2022-08-24T15:16:54.305Z,100291.13
2022-08-24T15:21:10.514Z,100298.00
2022-08-24T15:25:32.186Z,100281.13
2022-08-24T15:29:35.089Z,100289.25
2022-08-24T15:34:01.983Z,100275.84
2022-08-24T15:38:38.000Z,100283.47
2022-08-24T15:42:40.483Z,100271.38
2022-08-24T15:46:48.251Z,100278.91
2022-08-24T15:50:50.108Z,100265.09
2022-08-24T15:55:03.011Z,100261.19
2022-08-24T15:59:13.019Z,100272.47
2022-08-24T16:03:54.751Z,100262.41
2022-08-24T16:08:02.551Z,100269.56
2022-08-24T16:12:22.905Z,100250.13
2022-08-24T16:16:41.475Z,100260.25
2022-08-24T16:20:43.793Z,100261.00
2022-08-24T16:24:45.534Z,100253.59
2022-08-24T16:28:47.996Z,100262.78
2022-08-24T16:32:56.045Z,100260.53
2022-08-24T16:36:58.262Z,100260.50
2022-08-24T16:41:09.704Z,100263.91
2022-08-24T16:45:14.908Z,100270.94
2022-08-24T16:49:16.850Z,100260.09
2022-08-24T16:53:18.894Z,100268.50
2022-08-24T16:57:23.430Z,100258.63
2022-08-24T17:01:25.286Z,100268.41
2022-08-24T17:05:27.410Z,100266.06
2022-08-24T17:09:29.214Z,100256.63
2022-08-24T17:13:48.984Z,100273.41
2022-08-24T17:18:02.180Z,100262.81
2022-08-24T17:22:04.870Z,100271.41
2022-08-24T17:26:20.375Z,100269.44
2022-08-24T17:30:23.878Z,100277.72
2022-08-24T17:34:30.461Z,100292.25
2022-08-24T17:38:41.937Z,100302.84
2022-08-24T17:42:51.846Z,100302.34
2022-08-24T17:46:59.347Z,100299.56
2022-08-24T17:51:02.913Z,100298.38
2022-08-24T17:55:09.503Z,100313.50
2022-08-24T17:59:25.354Z,100314.63
2022-08-24T18:03:28.036Z,100321.13
2022-08-24T18:07:51.776Z,100332.56
2022-08-24T18:11:53.102Z,100318.53
2022-08-24T18:15:58.063Z,100320.47
2022-08-24T18:19:59.996Z,100314.75
2022-08-24T18:24:06.128Z,100323.59
2022-08-24T18:28:11.429Z,100329.91
2022-08-24T18:32:13.572Z,100336.28
2022-08-24T18:36:17.530Z,100336.59
2022-08-24T18:40:21.162Z,100337.28
2022-08-24T18:44:28.244Z,100344.72
2022-08-24T18:48:35.256Z,100348.19
2022-08-24T18:52:37.612Z,100353.53
2022-08-24T18:56:42.088Z,100363.63
2022-08-24T19:00:44.223Z,100371.28
2022-08-24T19:04:47.227Z,100370.84
2022-08-24T19:08:51.523Z,100373.97
2022-08-24T19:12:57.107Z,100359.63
2022-08-24T19:17:02.024Z,100369.75
2022-08-24T19:21:03.876Z,100372.16
2022-08-24T19:25:06.759Z,100377.19
2022-08-24T19:29:09.091Z,100387.03
2022-08-24T19:33:14.211Z,100372.56
2022-08-24T19:37:16.756Z,100378.72
2022-08-24T19:41:19.208Z,100384.03
2022-08-24T19:45:43.591Z,100392.28
2022-08-24T19:49:45.756Z,100389.28
2022-08-24T19:53:47.854Z,100390.97
2022-08-24T19:57:54.723Z,100386.97
2022-08-24T20:01:56.886Z,100386.63
2022-08-24T20:05:58.688Z,100397.56
2022-08-24T20:10:00.586Z,100412.44
2022-08-24T20:14:14.684Z,100405.84
2022-08-24T20:18:16.735Z,100414.06
2022-08-24T20:22:18.746Z,100406.94
2022-08-24T20:26:21.847Z,100421.06
2022-08-24T20:30:23.849Z,100413.94
2022-08-24T20:34:25.653Z,100416.66
2022-08-24T20:38:29.415Z,100408.09
2022-08-24T20:42:33.864Z,100410.16
2022-08-24T20:46:36.351Z,100401.97
2022-08-24T20:50:38.522Z,100397.09
2022-08-24T20:54:40.857Z,100411.06
2022-08-24T20:58:42.761Z,100415.16
2022-08-24T21:02:44.557Z,100417.19
2022-08-24T21:06:46.489Z,100413.97
2022-08-24T21:10:53.274Z,100426.66
2022-08-24T21:14:55.191Z,100436.13
2022-08-24T21:18:57.134Z,100424.44
2022-08-24T21:22:59.011Z,100433.47
2022-08-24T21:27:01.720Z,100425.94
2022-08-24T21:31:06.302Z,100432.84
2022-08-24T21:35:08.357Z,100444.13
2022-08-24T21:39:11.932Z,100445.34
2022-08-24T21:43:17.748Z,100436.34
2022-08-24T21:47:19.815Z,100439.03
2022-08-24T21:51:22.022Z,100445.34
2022-08-24T21:55:24.569Z,100461.53
2022-08-24T21:59:27.183Z,100448.38
2022-08-24T22:03:31.528Z,100464.19
2022-08-24T22:07:39.347Z,100453.53
2022-08-24T22:11:41.645Z,100462.94
2022-08-24T22:15:44.340Z,100458.19
2022-08-24T22:19:47.322Z,100456.78
2022-08-24T22:23:49.484Z,100450.41
2022-08-24T22:27:51.515Z,100448.97
2022-08-24T22:31:53.538Z,100448.97
2022-08-24T22:35:55.330Z,100439.19
2022-08-24T22:39:57.669Z,100437.31
2022-08-24T22:44:17.820Z,100438.53
2022-08-24T22:48:19.606Z,100447.28
2022-08-24T22:52:21.490Z,100440.75
2022-08-24T22:56:32.706Z,100416.03
2022-08-24T23:00:39.489Z,100430.72
2022-08-24T23:04:47.678Z,100440.31
2022-08-24T23:08:49.499Z,100436.38
2022-08-24T23:12:51.340Z,100429.22
2022-08-24T23:16:53.176Z,100426.56
2022-08-24T23:20:55.617Z,100426.56
2022-08-24T23:24:58.479Z,100422.06
2022-08-24T23:29:00.688Z,100412.84
2022-08-24T23:33:02.634Z,100424.47
2022-08-24T23:37:05.111Z,100430.97
2022-08-24T23:41:08.603Z,100433.03
2022-08-24T23:45:12.218Z,100418.53
2022-08-24T23:49:15.368Z,100420.13
2022-08-24T23:53:17.206Z,100425.84
2022-08-24T23:57:19.025Z,100427.84
